createdAt,value
2018-11-25T06:37:46.702Z,50.20
2018-11-25T06:40:44.560Z,51.70
2018-11-25T06:43:40.897Z,51.90
2018-11-25T06:46:44.426Z,51.90
2018-11-25T06:49:46.055Z,52.00
2018-11-25T06:52:50.772Z,52.00
2018-11-25T06:55:55.760Z,52.20
2018-11-25T06:58:56.619Z,52.20
2018-11-25T07:02:04.373Z,52.20
2018-11-25T07:05:00.611Z,52.20
2018-11-25T07:07:56.557Z,52.10
2018-11-25T07:10:52.983Z,52.10
2018-11-25T07:13:48.810Z,52.10
2018-11-25T07:16:45.190Z,52.30
2018-11-25T07:19:41.167Z,52.20
2018-11-25T07:22:37.168Z,52.30
2018-11-25T07:25:33.224Z,52.20
2018-11-25T07:28:29.286Z,52.30
2018-11-25T07:31:25.585Z,52.20
2018-11-25T07:34:21.978Z,52.20
2018-11-25T07:37:18.388Z,52.30
2018-11-25T07:40:19.246Z,52.30
2018-11-25T07:43:15.725Z,51.80
2018-11-25T07:46:12.034Z,51.30
2018-11-25T07:49:08.817Z,51.40
2018-11-25T07:52:05.215Z,51.70
2018-11-25T07:55:05.748Z,51.70
2018-11-25T07:58:02.630Z,51.90
2018-11-25T08:00:58.885Z,51.70
2018-11-25T08:03:54.841Z,51.20
2018-11-25T08:06:51.201Z,51.30
2018-11-25T08:09:50.860Z,51.20
2018-11-25T08:12:46.912Z,51.70
2018-11-25T08:15:43.176Z,51.20
2018-11-25T08:18:39.081Z,51.10
2018-11-25T08:21:35.913Z,51.10
2018-11-25T08:24:32.697Z,51.10
2018-11-25T08:27:29.518Z,51.00
2018-11-25T08:30:27.830Z,51.00
2018-11-25T08:33:24.917Z,50.70
2018-11-25T08:36:22.790Z,50.20
2018-11-25T08:39:19.019Z,50.20
2018-11-25T08:42:15.838Z,50.40
2018-11-25T08:45:13.599Z,50.30
2018-11-25T08:48:09.656Z,50.30
2018-11-25T08:51:05.909Z,50.40
2018-11-25T08:54:02.001Z,50.40
2018-11-25T08:56:58.540Z,50.40
2018-11-25T08:59:54.880Z,50.60
2018-11-25T09:02:51.228Z,50.60
2018-11-25T09:05:47.799Z,50.60
2018-11-25T09:08:44.305Z,50.70
2018-11-25T09:11:40.715Z,50.50
2018-11-25T09:14:37.105Z,50.40
2018-11-25T09:17:33.382Z,50.40
2018-11-25T09:20:30.365Z,50.40
2018-11-25T09:23:26.383Z,50.20
2018-11-25T09:26:22.683Z,50.20
2018-11-25T09:29:18.767Z,50.30
2018-11-25T09:32:22.732Z,50.40
2018-11-25T09:35:12.659Z,50.40
2018-11-25T09:38:09.211Z,49.90
2018-11-25T09:41:05.787Z,50.40
2018-11-25T09:44:03.093Z,50.20
2018-11-25T09:47:00.399Z,50.40
2018-11-25T09:49:57.011Z,50.20
2018-11-25T09:52:53.846Z,50.50
2018-11-25T09:55:50.148Z,50.30
2018-11-25T09:58:46.844Z,50.20
2018-11-25T10:01:43.558Z,50.40
2018-11-25T10:04:40.180Z,50.40
2018-11-25T10:07:36.506Z,50.40
2018-11-25T10:10:33.300Z,50.40
2018-11-25T10:13:29.811Z,50.60
2018-11-25T10:16:27.038Z,50.70
2018-11-25T10:19:23.222Z,50.70
2018-11-25T10:22:19.535Z,50.70
2018-11-25T10:25:20.238Z,50.70
2018-11-25T10:28:16.365Z,50.80
2018-11-25T10:31:13.130Z,50.60
2018-11-25T10:34:09.395Z,50.60
2018-11-25T10:37:05.343Z,50.10
2018-11-25T10:40:02.553Z,50.50
2018-11-25T10:42:58.630Z,50.10
2018-11-25T10:45:55.258Z,50.10
2018-11-25T10:48:51.726Z,50.20
2018-11-25T10:51:48.099Z,50.30
2018-11-25T10:54:44.266Z,50.00
2018-11-25T10:57:40.381Z,50.00
2018-11-25T11:00:54.242Z,50.00
2018-11-25T11:04:00.852Z,50.00
2018-11-25T11:07:13.639Z,49.90
2018-11-25T11:10:13.783Z,49.80
2018-11-25T11:13:10.582Z,49.80
2018-11-25T11:16:06.932Z,49.90
2018-11-25T11:19:03.140Z,49.90
2018-11-25T11:21:59.375Z,49.70
2018-11-25T11:24:55.983Z,49.30
2018-11-25T11:27:52.163Z,49.40
2018-11-25T11:30:48.278Z,49.50
2018-11-25T11:33:44.492Z,49.60
2018-11-25T11:36:40.639Z,49.90
2018-11-25T11:39:38.074Z,50.10
2018-11-25T11:42:35.055Z,50.20
2018-11-25T11:45:31.176Z,50.40
2018-11-25T11:48:28.169Z,50.50
2018-11-25T11:51:25.664Z,50.50
2018-11-25T11:54:20.891Z,50.60
2018-11-25T11:57:17.113Z,50.50
2018-11-25T12:00:33.350Z,50.60
2018-11-25T12:03:29.403Z,50.70
2018-11-25T12:06:25.769Z,50.80
2018-11-25T12:09:22.744Z,50.80
2018-11-25T12:12:19.214Z,51.00
2018-11-25T12:15:35.510Z,51.00
2018-11-25T12:18:31.738Z,51.10
2018-11-25T12:21:27.714Z,51.20
2018-11-25T12:24:24.065Z,51.20
2018-11-25T12:27:20.438Z,51.30
2018-11-25T12:30:20.675Z,51.20
2018-11-25T12:33:17.417Z,51.30
2018-11-25T12:36:14.054Z,51.30
2018-11-25T12:39:12.452Z,51.30
2018-11-25T12:42:08.829Z,51.40
2018-11-25T12:45:05.184Z,51.40
2018-11-25T12:48:01.762Z,51.40
2018-11-25T12:50:57.947Z,51.40
2018-11-25T12:53:53.997Z,51.50
2018-11-25T12:56:51.781Z,51.40
2018-11-25T12:59:46.459Z,51.50
2018-11-25T13:02:46.217Z,51.60
2018-11-25T13:05:46.267Z,51.60
2018-11-25T13:08:39.868Z,51.60
2018-11-25T13:11:35.806Z,51.60
2018-11-25T13:14:32.186Z,51.70
2018-11-25T13:17:28.769Z,51.60
2018-11-25T13:20:25.602Z,51.50
2018-11-25T13:23:22.107Z,51.70
2018-11-25T13:26:18.287Z,51.70
2018-11-25T13:29:14.858Z,51.70
2018-11-25T13:32:10.694Z,51.80
2018-11-25T13:35:07.127Z,51.40
2018-11-25T13:38:04.008Z,52.00
2018-11-25T13:41:01.639Z,52.00
2018-11-25T13:43:58.235Z,52.10
2018-11-25T13:46:54.814Z,52.20
2018-11-25T13:49:51.519Z,52.20
2018-11-25T13:52:47.788Z,52.30
2018-11-25T13:55:43.737Z,52.30
2018-11-25T13:58:40.194Z,52.30
2018-11-25T14:01:37.147Z,52.30
2018-11-25T14:04:33.166Z,52.30
2018-11-25T14:07:29.684Z,52.30
2018-11-25T14:10:30.715Z,52.30
2018-11-25T14:13:26.795Z,52.30
2018-11-25T14:16:25.072Z,52.30
2018-11-25T14:19:21.234Z,52.20
2018-11-25T14:22:17.670Z,52.80
2018-11-25T14:25:18.633Z,52.40
2018-11-25T14:28:16.980Z,52.40
2018-11-25T14:31:13.323Z,52.50
2018-11-25T14:34:09.997Z,52.50
2018-11-25T14:37:06.444Z,52.60
2018-11-25T14:40:02.524Z,52.60
2018-11-25T14:42:59.061Z,52.50
2018-11-25T14:45:54.967Z,52.40
2018-11-25T14:48:50.977Z,52.40
2018-11-25T14:51:47.083Z,52.40
2018-11-25T14:54:50.958Z,52.60
2018-11-25T14:57:39.155Z,52.70
2018-11-25T15:00:35.060Z,52.80
2018-11-25T15:03:31.165Z,52.90
2018-11-25T15:06:29.493Z,52.80
2018-11-25T15:09:23.873Z,52.90
2018-11-25T15:12:19.911Z,52.80
2018-11-25T15:15:17.820Z,52.70
2018-11-25T15:18:14.341Z,52.70
2018-11-25T15:21:11.059Z,52.80
2018-11-25T15:24:08.401Z,52.80
2018-11-25T15:27:05.188Z,52.80
2018-11-25T15:30:01.592Z,52.90
2018-11-25T15:32:58.049Z,53.00
2018-11-25T15:35:54.214Z,53.00
2018-11-25T15:38:50.369Z,53.00
2018-11-25T15:41:47.171Z,53.10
2018-11-25T15:44:43.759Z,53.00
2018-11-25T15:47:40.760Z,52.90
2018-11-25T15:50:37.390Z,53.00
2018-11-25T15:53:34.012Z,53.00
2018-11-25T15:56:31.851Z,52.90
2018-11-25T15:59:27.672Z,52.70
2018-11-25T16:02:24.251Z,52.70
2018-11-25T16:05:24.725Z,52.70
2018-11-25T16:08:21.352Z,52.90
2018-11-25T16:11:18.182Z,52.90
2018-11-25T16:14:14.363Z,52.80
2018-11-25T16:17:10.647Z,52.80
2018-11-25T16:20:07.009Z,53.00
2018-11-25T16:23:13.841Z,53.00
2018-11-25T16:26:13.870Z,53.20
2018-11-25T16:29:18.342Z,53.20
2018-11-25T16:32:14.970Z,53.30
2018-11-25T16:35:14.871Z,53.30
2018-11-25T16:38:11.481Z,53.30
2018-11-25T16:41:08.076Z,53.30
2018-11-25T16:44:04.620Z,53.30
2018-11-25T16:47:01.246Z,53.30
2018-11-25T16:49:58.337Z,53.40
2018-11-25T16:52:55.362Z,53.30
2018-11-25T16:55:51.661Z,53.20
2018-11-25T16:58:48.130Z,53.20
2018-11-25T17:01:44.967Z,53.20
2018-11-25T17:04:42.111Z,53.20
2018-11-25T17:07:38.525Z,53.30
2018-11-25T17:10:35.283Z,53.20
2018-11-25T17:13:31.828Z,53.20
2018-11-25T17:16:36.787Z,53.00
2018-11-25T17:19:34.366Z,53.10
2018-11-25T17:22:34.075Z,53.20
2018-11-25T17:25:27.436Z,53.20
2018-11-25T17:28:23.677Z,53.20
2018-11-25T17:31:19.740Z,53.10
2018-11-25T17:34:15.987Z,53.10
2018-11-25T17:37:12.521Z,53.20
2018-11-25T17:40:08.666Z,53.20
2018-11-25T17:43:04.736Z,53.20
2018-11-25T17:46:04.112Z,53.40
2018-11-25T17:48:59.870Z,53.40
2018-11-25T17:52:00.237Z,53.40
2018-11-25T17:54:56.386Z,53.40
2018-11-25T17:57:55.135Z,53.40
2018-11-25T18:01:04.846Z,53.30
2018-11-25T18:04:04.583Z,53.40
2018-11-25T18:07:00.578Z,53.30
2018-11-25T18:09:56.951Z,53.30
2018-11-25T18:12:53.752Z,53.40
2018-11-25T18:15:53.988Z,53.30
2018-11-25T18:19:24.368Z,53.30
2018-11-25T18:22:23.877Z,53.30
2018-11-25T18:25:23.331Z,53.30
2018-11-25T18:28:16.957Z,53.30
2018-11-25T18:31:14.071Z,53.30
2018-11-25T18:34:10.717Z,53.20
2018-11-25T18:37:07.546Z,53.20
2018-11-25T18:40:03.791Z,53.30
2018-11-25T18:43:00.247Z,53.40
2018-11-25T18:46:01.174Z,53.40
2018-11-25T18:48:57.902Z,53.40
2018-11-25T18:51:54.301Z,53.40
2018-11-25T18:54:52.325Z,53.40
2018-11-25T18:57:50.199Z,53.50
2018-11-25T19:00:55.264Z,53.40
2018-11-25T19:03:52.288Z,53.60
2018-11-25T19:06:48.362Z,53.50
2018-11-25T19:09:44.360Z,53.30
2018-11-25T19:12:44.365Z,53.40
2018-11-25T19:15:37.390Z,53.30
2018-11-25T19:18:33.642Z,53.00
2018-11-25T19:21:33.063Z,52.90
2018-11-25T19:24:29.283Z,52.60
2018-11-25T19:27:25.725Z,52.50
2018-11-25T19:30:26.710Z,52.40
2018-11-25T19:33:18.720Z,52.40
2018-11-25T19:36:15.269Z,52.60
2018-11-25T19:39:13.363Z,52.20
2018-11-25T19:42:10.296Z,52.30
2018-11-25T19:45:09.917Z,52.40
2018-11-25T19:48:06.593Z,52.50
2018-11-25T19:51:02.912Z,52.70
2018-11-25T19:53:59.288Z,52.80
2018-11-25T19:56:58.571Z,52.90
2018-11-25T19:59:54.936Z,52.80
2018-11-25T20:02:51.966Z,52.70
2018-11-25T20:05:48.430Z,52.80
2018-11-25T20:08:44.947Z,52.70
2018-11-25T20:11:41.792Z,52.90
2018-11-25T20:14:37.963Z,52.80
2018-11-25T20:17:34.956Z,52.70
2018-11-25T20:20:32.027Z,52.60
2018-11-25T20:23:28.181Z,52.60
2018-11-25T20:26:24.422Z,52.70
2018-11-25T20:29:23.865Z,52.60
2018-11-25T20:32:36.506Z,52.70
2018-11-25T20:35:33.361Z,52.80
2018-11-25T20:38:46.314Z,52.70
2018-11-25T20:41:42.650Z,52.70
2018-11-25T20:44:39.621Z,52.90
2018-11-25T20:47:39.534Z,52.90
2018-11-25T20:50:35.741Z,52.90
2018-11-25T20:53:48.647Z,52.90
2018-11-25T20:56:44.949Z,52.90
2018-11-25T20:59:41.273Z,52.90
2018-11-25T21:02:38.289Z,53.00
2018-11-25T21:05:34.450Z,52.90
2018-11-25T21:08:30.805Z,52.90
2018-11-25T21:11:27.460Z,52.80
2018-11-25T21:14:23.717Z,52.80
2018-11-25T21:17:19.956Z,52.80
2018-11-25T21:20:23.014Z,52.90
2018-11-25T21:23:19.047Z,52.90
2018-11-25T21:26:16.017Z,53.00
2018-11-25T21:29:12.636Z,53.00
2018-11-25T21:32:09.012Z,52.90
2018-11-25T21:35:05.993Z,53.00
2018-11-25T21:38:02.696Z,53.00
2018-11-25T21:40:59.163Z,53.00
2018-11-25T21:43:55.082Z,53.00
2018-11-25T21:46:51.201Z,53.00
2018-11-25T21:49:51.368Z,53.10
2018-11-25T21:52:47.904Z,53.10
2018-11-25T21:55:44.347Z,53.00
2018-11-25T21:58:40.938Z,53.00
2018-11-25T22:01:40.507Z,53.00
2018-11-25T22:04:36.864Z,53.00
2018-11-25T22:07:33.054Z,53.00
2018-11-25T22:10:33.380Z,53.00
2018-11-25T22:13:26.654Z,53.00
2018-11-25T22:16:23.187Z,52.90
2018-11-25T22:19:18.996Z,52.80
2018-11-25T22:22:15.202Z,52.80
2018-11-25T22:25:16.053Z,52.80
2018-11-25T22:28:14.752Z,52.90
2018-11-25T22:31:08.736Z,53.00
2018-11-25T22:34:04.934Z,52.90
2018-11-25T22:37:01.270Z,52.90
2018-11-25T22:39:57.445Z,53.00
2018-11-25T22:42:56.680Z,53.00
2018-11-25T22:45:52.940Z,52.90
2018-11-25T22:48:48.891Z,52.90
2018-11-25T22:51:45.120Z,52.80
2018-11-25T22:54:41.572Z,52.30
2018-11-25T22:57:37.901Z,52.90
2018-11-25T23:00:41.221Z,52.90
2018-11-25T23:03:37.602Z,52.90
2018-11-25T23:07:19.126Z,52.90
2018-11-25T23:10:15.453Z,52.90
2018-11-25T23:13:12.063Z,52.90
2018-11-25T23:16:08.297Z,53.00
2018-11-25T23:19:04.500Z,53.00
2018-11-25T23:22:00.665Z,52.90
2018-11-25T23:24:57.255Z,53.00
2018-11-25T23:27:53.929Z,52.90
2018-11-25T23:30:50.928Z,52.90
2018-11-25T23:33:49.272Z,53.00
2018-11-25T23:36:45.606Z,53.00
2018-11-25T23:39:41.851Z,52.90
2018-11-25T23:42:38.120Z,52.90
2018-11-25T23:45:34.739Z,53.00
2018-11-25T23:48:31.550Z,53.00
2018-11-25T23:51:30.241Z,53.00
2018-11-25T23:54:26.498Z,53.00
2018-11-25T23:57:23.234Z,53.00
